createdAt,value
2023-06-29T00:02:21.143Z,78.71
2023-06-29T00:05:24.266Z,80.66
2023-06-29T00:08:28.580Z,80.96
2023-06-29T00:11:32.059Z,82.32
2023-06-29T00:14:34.774Z,82.09
2023-06-29T00:17:38.082Z,84.17
2023-06-29T00:20:42.127Z,82.96
2023-06-29T00:23:47.169Z,81.57
2023-06-29T00:26:50.272Z,81.45
2023-06-29T00:29:53.128Z,82.45
2023-06-29T00:32:56.144Z,83.62
2023-06-29T00:35:59.081Z,83.65
2023-06-29T00:39:01.634Z,83.99
2023-06-29T00:42:07.045Z,84.24
2023-06-29T00:45:10.425Z,85.34
2023-06-29T00:48:13.896Z,84.99
2023-06-29T00:51:17.365Z,84.86
2023-06-29T00:54:21.729Z,84.61
2023-06-29T00:57:25.356Z,84.60
2023-06-29T01:00:28.466Z,82.59
2023-06-29T01:03:32.192Z,80.56
2023-06-29T01:06:45.641Z,81.44
2023-06-29T01:09:48.647Z,82.03
2023-06-29T01:12:52.848Z,81.62
2023-06-29T01:15:56.355Z,81.86
2023-06-29T01:19:01.239Z,82.31
2023-06-29T01:22:09.271Z,81.67
2023-06-29T01:25:12.676Z,81.41
2023-06-29T01:28:15.458Z,80.56
2023-06-29T01:31:18.925Z,78.95
2023-06-29T01:34:22.869Z,78.58
2023-06-29T01:37:29.685Z,79.07
2023-06-29T01:40:33.556Z,79.99
2023-06-29T01:43:37.477Z,79.47
2023-06-29T01:46:40.593Z,79.46
2023-06-29T01:49:43.730Z,79.23
2023-06-29T01:52:46.598Z,80.21
2023-06-29T01:55:50.624Z,80.59
2023-06-29T01:58:53.301Z,80.85
2023-06-29T02:01:56.203Z,80.52
2023-06-29T02:05:00.319Z,80.80
2023-06-29T02:08:03.096Z,81.55
2023-06-29T02:11:06.118Z,80.97
2023-06-29T02:14:08.973Z,80.57
2023-06-29T02:17:11.902Z,80.67
2023-06-29T02:20:15.306Z,81.15
2023-06-29T02:23:17.892Z,81.53
2023-06-29T02:26:20.906Z,81.33
2023-06-29T02:29:24.422Z,80.63
2023-06-29T02:32:28.999Z,80.50
2023-06-29T02:35:31.671Z,80.48
2023-06-29T02:38:35.545Z,78.64
2023-06-29T02:41:38.173Z,79.62
2023-06-29T02:44:41.227Z,79.97
2023-06-29T02:47:44.134Z,80.61
2023-06-29T02:50:47.384Z,81.49
2023-06-29T02:53:50.270Z,81.90
2023-06-29T02:56:53.216Z,83.00
2023-06-29T02:59:55.853Z,82.68
2023-06-29T03:02:58.883Z,83.28
2023-06-29T03:06:01.553Z,82.57
2023-06-29T03:09:05.388Z,81.91
2023-06-29T03:12:10.536Z,82.90
2023-06-29T03:15:13.390Z,83.18
2023-06-29T03:18:15.981Z,83.78
2023-06-29T03:21:21.540Z,83.76
2023-06-29T03:24:24.050Z,83.88
2023-06-29T03:27:26.919Z,83.45
2023-06-29T03:30:29.456Z,83.69
2023-06-29T03:33:32.418Z,82.78
2023-06-29T03:36:34.996Z,81.88
2023-06-29T03:39:37.924Z,82.51
2023-06-29T03:42:40.523Z,80.14
2023-06-29T03:45:43.849Z,80.21
2023-06-29T03:48:46.604Z,80.70
2023-06-29T03:51:49.458Z,80.16
2023-06-29T03:54:52.083Z,79.07
2023-06-29T03:57:55.945Z,79.56
2023-06-29T04:00:58.558Z,80.11
2023-06-29T04:04:01.446Z,80.33
2023-06-29T04:07:04.250Z,79.01
2023-06-29T04:10:07.573Z,78.31
2023-06-29T04:13:10.255Z,78.58
2023-06-29T04:16:13.101Z,78.37
2023-06-29T04:19:17.134Z,78.34
2023-06-29T04:22:20.047Z,79.08
2023-06-29T04:25:22.645Z,76.72
2023-06-29T04:28:25.532Z,75.49
2023-06-29T04:31:29.439Z,75.17
2023-06-29T04:34:32.312Z,74.87
2023-06-29T04:37:41.758Z,74.11
2023-06-29T04:40:44.864Z,73.56
2023-06-29T04:43:48.941Z,73.56
2023-06-29T04:46:51.888Z,72.79
2023-06-29T04:49:58.083Z,71.28
2023-06-29T04:53:07.136Z,71.50
2023-06-29T04:56:09.810Z,70.82
2023-06-29T04:59:12.634Z,69.89
2023-06-29T05:02:15.272Z,70.75
2023-06-29T05:05:18.346Z,70.99
2023-06-29T05:08:20.989Z,69.96
2023-06-29T05:11:23.848Z,69.11
2023-06-29T05:14:27.741Z,68.56
2023-06-29T05:17:31.478Z,69.20
2023-06-29T05:20:35.515Z,68.80
2023-06-29T05:23:38.878Z,67.31
2023-06-29T05:26:41.409Z,67.61
2023-06-29T05:29:44.234Z,67.63
2023-06-29T05:32:46.862Z,66.80
2023-06-29T05:35:49.922Z,67.48
2023-06-29T05:38:52.592Z,67.80
2023-06-29T05:41:55.457Z,65.96
2023-06-29T05:44:59.750Z,66.08
2023-06-29T05:48:02.696Z,64.62
2023-06-29T05:51:05.383Z,65.78
2023-06-29T05:54:08.271Z,65.78
2023-06-29T05:57:10.937Z,64.27
2023-06-29T06:00:14.364Z,63.73
2023-06-29T06:03:21.243Z,63.97
2023-06-29T06:06:24.191Z,64.85
2023-06-29T06:09:27.089Z,64.00
2023-06-29T06:12:29.770Z,64.26
2023-06-29T06:15:32.762Z,63.64
2023-06-29T06:18:35.463Z,63.73
2023-06-29T06:21:38.374Z,64.23
2023-06-29T06:24:41.010Z,64.65
2023-06-29T06:27:44.704Z,64.86
2023-06-29T06:30:48.315Z,66.27
2023-06-29T06:33:54.233Z,63.96
2023-06-29T06:36:57.162Z,62.26
2023-06-29T06:40:00.100Z,61.53
2023-06-29T06:43:03.236Z,61.04
2023-06-29T06:46:06.083Z,60.84
2023-06-29T06:49:09.038Z,59.94
2023-06-29T06:52:12.010Z,61.05
2023-06-29T06:55:14.638Z,61.52
2023-06-29T06:58:17.471Z,60.20
2023-06-29T07:01:22.956Z,60.85
2023-06-29T07:04:25.903Z,60.68
2023-06-29T07:07:28.577Z,60.87
2023-06-29T07:10:31.393Z,60.23
2023-06-29T07:13:34.127Z,60.29
2023-06-29T07:16:37.080Z,60.27
2023-06-29T07:25:51.584Z,58.42
2023-06-29T07:28:54.594Z,59.50
2023-06-29T07:31:57.594Z,59.61
2023-06-29T07:35:00.502Z,59.62
2023-06-29T07:38:03.168Z,59.30
2023-06-29T07:41:06.340Z,60.00
2023-06-29T07:44:09.011Z,58.36
2023-06-29T07:47:11.990Z,58.99
2023-06-29T07:50:14.937Z,58.02
2023-06-29T07:53:17.841Z,57.60
2023-06-29T07:56:20.470Z,58.10
2023-06-29T07:59:23.448Z,58.37
2023-06-29T08:02:26.111Z,57.85
2023-06-29T08:08:34.833Z,57.27
2023-06-29T08:11:38.383Z,57.24
2023-06-29T08:14:40.966Z,56.08
2023-06-29T08:17:44.129Z,56.08
2023-06-29T08:20:49.668Z,57.09
2023-06-29T08:23:52.576Z,55.77
2023-06-29T08:26:55.353Z,55.50
2023-06-29T08:29:58.320Z,55.87
2023-06-29T08:33:00.934Z,55.30
2023-06-29T08:36:04.012Z,54.97
2023-06-29T08:39:06.745Z,54.24
2023-06-29T08:42:09.672Z,54.49
2023-06-29T08:45:12.493Z,53.56
2023-06-29T08:48:16.027Z,52.53
2023-06-29T08:51:20.348Z,51.33
2023-06-29T08:54:23.569Z,50.82
2023-06-29T08:57:26.236Z,51.65
2023-06-29T09:00:29.897Z,52.16
2023-06-29T09:03:33.355Z,53.08
2023-06-29T09:06:36.243Z,51.79
2023-06-29T09:09:39.152Z,53.61
2023-06-29T09:12:42.379Z,52.68
2023-06-29T09:15:46.403Z,52.67
2023-06-29T09:18:50.519Z,51.18
2023-06-29T09:21:53.148Z,48.60
2023-06-29T09:25:09.861Z,47.81
2023-06-29T09:28:16.177Z,47.90
2023-06-29T09:31:19.200Z,47.03
2023-06-29T09:34:23.644Z,49.08
2023-06-29T09:37:26.550Z,48.66
2023-06-29T09:40:29.378Z,48.37
2023-06-29T09:43:32.333Z,49.14
2023-06-29T09:46:37.261Z,47.57
2023-06-29T09:49:50.003Z,48.62
2023-06-29T09:52:55.044Z,48.24
2023-06-29T09:56:00.070Z,49.66
2023-06-29T09:59:03.570Z,47.62
2023-06-29T10:02:10.417Z,46.43
2023-06-29T10:05:13.371Z,45.68
2023-06-29T10:08:19.873Z,44.54
2023-06-29T10:11:28.304Z,45.12
2023-06-29T10:14:33.960Z,45.06
2023-06-29T10:18:16.337Z,45.09
2023-06-29T10:21:19.031Z,44.91
2023-06-29T10:24:25.825Z,44.45
2023-06-29T10:27:31.035Z,44.66
2023-06-29T10:31:03.297Z,44.93
2023-06-29T10:34:08.797Z,45.83
2023-06-29T10:37:11.702Z,45.54
2023-06-29T10:40:16.800Z,43.64
2023-06-29T10:43:19.728Z,43.98
2023-06-29T10:46:47.460Z,45.42
2023-06-29T10:49:56.753Z,43.41
2023-06-29T10:53:01.209Z,41.90
2023-06-29T10:56:04.317Z,41.37
2023-06-29T10:59:09.464Z,42.34
2023-06-29T11:02:13.122Z,42.51
2023-06-29T11:05:20.082Z,41.33
2023-06-29T11:08:24.032Z,40.45
2023-06-29T11:11:26.753Z,40.03
2023-06-29T11:14:29.839Z,40.38
2023-06-29T11:17:32.476Z,41.19
2023-06-29T11:20:38.884Z,39.43
2023-06-29T11:23:50.739Z,39.15
2023-06-29T11:26:56.812Z,40.88
2023-06-29T11:29:59.714Z,39.74
2023-06-29T11:33:05.270Z,38.77
2023-06-29T11:36:13.568Z,39.03
2023-06-29T11:39:18.953Z,38.26
2023-06-29T11:42:23.606Z,39.69
2023-06-29T11:45:26.683Z,37.56
2023-06-29T11:48:31.200Z,38.92
2023-06-29T11:55:07.395Z,36.21
2023-06-29T11:58:14.291Z,37.61
2023-06-29T12:01:17.129Z,39.61
2023-06-29T12:04:20.387Z,38.83
2023-06-29T12:07:55.522Z,38.98
2023-06-29T12:10:58.463Z,38.12
2023-06-29T12:14:02.308Z,39.16
2023-06-29T12:20:19.807Z,38.88
2023-06-29T12:23:22.896Z,37.13
2023-06-29T12:26:26.299Z,37.22
2023-06-29T12:29:29.158Z,37.54
2023-06-29T12:32:31.825Z,35.93
2023-06-29T12:35:34.953Z,36.63
2023-06-29T12:38:37.594Z,37.91
2023-06-29T12:41:40.405Z,38.60
2023-06-29T12:44:43.030Z,37.40
2023-06-29T12:47:45.937Z,38.67
2023-06-29T12:50:48.906Z,36.87
2023-06-29T12:53:52.013Z,37.34
2023-06-29T12:56:54.621Z,36.71
2023-06-29T12:59:59.297Z,36.24
2023-06-29T13:03:06.768Z,36.85
2023-06-29T13:06:09.830Z,37.23
2023-06-29T13:09:12.489Z,37.35
2023-06-29T13:12:15.992Z,37.99
2023-06-29T13:15:18.773Z,37.07
2023-06-29T13:18:21.669Z,36.83
2023-06-29T13:21:24.441Z,36.89
2023-06-29T13:24:27.468Z,37.17
2023-06-29T13:27:30.064Z,35.14
2023-06-29T13:30:33.520Z,35.84
2023-06-29T13:33:36.174Z,35.07
2023-06-29T13:36:39.158Z,34.37
2023-06-29T13:39:42.278Z,34.30
2023-06-29T13:42:45.321Z,34.67
2023-06-29T13:45:49.832Z,34.14
2023-06-29T13:48:53.248Z,33.60
2023-06-29T13:51:55.928Z,33.89
2023-06-29T13:54:59.233Z,33.88
2023-06-29T13:58:01.923Z,34.85
2023-06-29T14:01:04.755Z,34.91
2023-06-29T14:04:09.645Z,33.13
2023-06-29T14:07:12.385Z,32.71
2023-06-29T14:10:15.386Z,33.86
2023-06-29T14:13:17.974Z,34.23
2023-06-29T14:16:20.943Z,33.76
2023-06-29T14:19:23.553Z,33.12
2023-06-29T14:22:26.464Z,33.09
2023-06-29T14:25:29.080Z,33.14
2023-06-29T14:28:31.903Z,33.16
2023-06-29T14:31:36.616Z,31.63
2023-06-29T14:34:39.962Z,31.09
2023-06-29T14:37:42.581Z,30.24
2023-06-29T14:40:45.407Z,29.61
2023-06-29T14:43:48.015Z,29.01
2023-06-29T14:46:51.737Z,28.43
2023-06-29T14:49:54.342Z,27.66
2023-06-29T14:52:57.443Z,26.61
2023-06-29T14:56:08.283Z,24.61
2023-06-29T14:59:12.412Z,23.87
2023-06-29T15:02:15.192Z,22.39
2023-06-29T15:05:18.092Z,21.28
2023-06-29T15:08:20.700Z,19.77
2023-06-29T15:11:23.599Z,22.88
2023-06-29T15:14:26.720Z,26.52
2023-06-29T15:17:30.519Z,28.78
2023-06-29T15:20:33.264Z,30.82
2023-06-29T15:23:36.111Z,32.37
2023-06-29T15:26:38.863Z,31.57
2023-06-29T15:29:41.729Z,32.03
2023-06-29T15:32:44.394Z,34.64
2023-06-29T15:35:47.744Z,34.29
2023-06-29T15:38:50.605Z,35.53
2023-06-29T15:41:53.656Z,35.77
2023-06-29T15:44:56.373Z,35.86
2023-06-29T15:47:59.467Z,39.19
2023-06-29T15:51:02.388Z,37.32
2023-06-29T15:54:05.282Z,38.80
2023-06-29T15:57:07.905Z,35.65
2023-06-29T16:00:11.251Z,30.27
2023-06-29T16:03:14.213Z,26.07
2023-06-29T16:06:26.404Z,22.45
2023-06-29T16:09:33.282Z,20.36
2023-06-29T16:12:36.286Z,20.51
2023-06-29T16:15:38.861Z,19.67
2023-06-29T16:18:43.073Z,21.17
2023-06-29T16:21:46.508Z,23.95
2023-06-29T16:24:49.354Z,26.57
2023-06-29T16:27:52.191Z,28.77
2023-06-29T16:30:57.342Z,31.01
2023-06-29T16:34:00.068Z,32.88
2023-06-29T16:37:03.111Z,33.88
2023-06-29T16:40:06.568Z,35.00
2023-06-29T16:43:09.623Z,35.20
2023-06-29T16:46:12.193Z,35.36
2023-06-29T16:49:15.169Z,35.25
2023-06-29T16:52:17.740Z,35.21
2023-06-29T16:55:20.864Z,36.84
2023-06-29T16:58:27.082Z,37.67
2023-06-29T17:01:30.119Z,38.36
2023-06-29T17:04:32.860Z,39.11
2023-06-29T17:07:35.778Z,39.34
2023-06-29T17:10:38.498Z,39.43
2023-06-29T17:13:41.734Z,40.10
2023-06-29T17:16:44.545Z,39.67
2023-06-29T17:19:50.080Z,39.79
2023-06-29T17:22:52.667Z,39.86
2023-06-29T17:25:55.616Z,40.41
2023-06-29T17:28:58.387Z,40.58
2023-06-29T17:32:01.375Z,41.58
2023-06-29T17:35:04.339Z,42.36
2023-06-29T17:38:07.546Z,41.76
2023-06-29T17:41:11.630Z,42.06
2023-06-29T17:44:15.620Z,42.25
2023-06-29T17:47:18.364Z,42.97
2023-06-29T17:50:21.533Z,43.60
2023-06-29T17:53:24.063Z,43.99
2023-06-29T17:56:26.975Z,44.15
2023-06-29T17:59:29.575Z,44.76
2023-06-29T18:02:32.583Z,45.47
2023-06-29T18:05:35.623Z,46.15
2023-06-29T18:08:38.588Z,46.33
2023-06-29T18:11:41.431Z,46.72
2023-06-29T18:14:44.073Z,47.44
2023-06-29T18:17:46.963Z,48.13
2023-06-29T18:20:49.685Z,48.42
2023-06-29T18:23:52.604Z,49.17
2023-06-29T18:26:55.300Z,50.09
2023-06-29T18:29:58.258Z,50.40
2023-06-29T18:33:00.933Z,51.22
2023-06-29T18:36:04.094Z,51.13
2023-06-29T18:39:06.793Z,51.30
2023-06-29T18:42:11.343Z,51.91
2023-06-29T18:45:13.999Z,52.69
2023-06-29T18:48:16.876Z,53.23
2023-06-29T18:51:23.974Z,53.04
2023-06-29T18:54:27.036Z,53.25
2023-06-29T18:57:29.785Z,53.57
2023-06-29T19:00:32.716Z,54.24
2023-06-29T19:03:35.549Z,54.15
2023-06-29T19:06:38.543Z,54.60
2023-06-29T19:09:41.079Z,54.81
2023-06-29T19:12:43.931Z,55.31
2023-06-29T19:15:47.110Z,56.33
2023-06-29T19:18:50.399Z,56.97
2023-06-29T19:21:53.394Z,57.85
2023-06-29T19:24:56.362Z,58.47
2023-06-29T19:27:59.019Z,58.36
2023-06-29T19:31:02.173Z,60.59
2023-06-29T19:34:04.955Z,61.17
2023-06-29T19:37:07.800Z,62.48
2023-06-29T19:40:11.048Z,62.75
2023-06-29T19:43:14.026Z,64.38
2023-06-29T19:46:16.711Z,64.61
2023-06-29T19:49:20.154Z,66.65
2023-06-29T19:52:23.995Z,66.88
2023-06-29T19:55:26.858Z,67.81
2023-06-29T19:58:29.720Z,68.83
2023-06-29T20:01:32.723Z,69.61
2023-06-29T20:04:35.653Z,70.10
2023-06-29T20:07:40.733Z,71.72
2023-06-29T20:10:44.001Z,72.74
2023-06-29T20:13:46.834Z,74.17
2023-06-29T20:16:50.240Z,74.31
2023-06-29T20:19:55.189Z,74.12
2023-06-29T20:22:58.342Z,74.80
2023-06-29T20:26:01.223Z,73.64
2023-06-29T20:29:04.378Z,75.23
2023-06-29T20:32:07.553Z,76.09
2023-06-29T20:35:10.492Z,76.35
2023-06-29T20:38:13.128Z,75.84
2023-06-29T20:41:16.071Z,77.08
2023-06-29T20:44:19.524Z,77.10
2023-06-29T20:47:22.395Z,76.73
2023-06-29T20:50:25.256Z,75.00
2023-06-29T20:53:28.138Z,77.21
2023-06-29T20:56:30.996Z,78.07
2023-06-29T20:59:35.047Z,76.88
2023-06-29T21:02:38.138Z,77.09
2023-06-29T21:05:41.298Z,78.10
2023-06-29T21:08:44.027Z,80.10
2023-06-29T21:11:47.120Z,78.94
2023-06-29T21:14:50.040Z,80.03
2023-06-29T21:17:54.909Z,79.63
2023-06-29T21:20:57.800Z,80.22
2023-06-29T21:24:00.944Z,80.07
2023-06-29T21:27:03.972Z,80.49
2023-06-29T21:30:08.105Z,82.12
2023-06-29T21:33:10.902Z,82.50
2023-06-29T21:36:14.199Z,83.00
2023-06-29T21:39:16.754Z,83.46
2023-06-29T21:42:19.879Z,83.19
2023-06-29T21:45:25.984Z,83.65
2023-06-29T21:48:29.223Z,84.62
2023-06-29T21:51:32.012Z,85.45
2023-06-29T21:54:34.869Z,85.21
2023-06-29T21:57:37.634Z,86.05
2023-06-29T22:00:41.267Z,86.14
2023-06-29T22:03:45.268Z,87.05
2023-06-29T22:06:49.985Z,86.75
2023-06-29T22:09:54.737Z,87.05
2023-06-29T22:12:57.407Z,88.27
2023-06-29T22:16:00.272Z,89.38
2023-06-29T22:19:02.991Z,89.00
2023-06-29T22:22:08.559Z,89.43
2023-06-29T22:25:11.618Z,90.24
2023-06-29T22:28:15.632Z,90.47
2023-06-29T22:31:19.069Z,91.26
2023-06-29T22:34:22.527Z,91.63
2023-06-29T22:37:25.151Z,92.61
2023-06-29T22:40:28.062Z,93.19
2023-06-29T22:43:30.688Z,94.66
2023-06-29T22:46:33.631Z,95.30
2023-06-29T22:49:36.300Z,95.20
2023-06-29T22:52:39.190Z,96.09
2023-06-29T22:55:41.838Z,95.32
2023-06-29T22:58:44.744Z,95.20
2023-06-29T23:01:49.774Z,96.45
2023-06-29T23:04:53.623Z,97.00
2023-06-29T23:07:56.360Z,97.26
2023-06-29T23:10:59.270Z,97.53
2023-06-29T23:14:01.816Z,98.20
2023-06-29T23:17:04.930Z,98.70
2023-06-29T23:20:12.629Z,98.64
2023-06-29T23:23:15.406Z,99.37
2023-06-29T23:26:20.415Z,99.49
2023-06-29T23:29:23.419Z,99.83
2023-06-29T23:32:26.615Z,100.00
2023-06-29T23:35:29.473Z,100.00
2023-06-29T23:38:32.051Z,100.00
2023-06-29T23:41:34.955Z,100.00
2023-06-29T23:44:41.610Z,100.00
2023-06-29T23:47:44.719Z,100.00
2023-06-29T23:50:48.621Z,100.00
2023-06-29T23:53:51.449Z,100.00
2023-06-29T23:56:54.054Z,100.00
2023-06-29T23:59:57.107Z,100.00
